Time;durP1;ratioP1;P1;durP2;ratioP2;P2;SDS_P1;SDS_P2;PMS_P1;PMS_P2;Temp;Humidity;BMP_temperature;BMP_pressure;BME280_temperature;BME280_humidity;BME280_pressure;Samples;Min_cycle;Max_cycle;Signal;HPM_P1;HPM_P2
2022/09/14 00:01:33;;;;;;;2.23;2.03;;;21.80;74.90;22.40;95758.00;;;;5069297;28;20295;-83
2022/09/14 00:04:05;;;;;;;1.93;1.83;;;21.80;74.90;22.40;95757.00;;;;5061845;28;20219;-83
2022/09/14 00:06:33;;;;;;;2.10;1.80;;;21.80;75.00;22.40;95755.00;;;;5070634;28;20559;-83
2022/09/14 00:09:04;;;;;;;4.43;2.40;;;21.80;74.90;22.40;95755.00;;;;5071720;28;20225;-83
2022/09/14 00:11:34;;;;;;;2.60;2.13;;;21.90;75.10;22.40;95761.00;;;;5068716;28;20203;-83
2022/09/14 00:14:03;;;;;;;2.53;2.10;;;21.90;75.00;22.40;95758.00;;;;5065522;28;20466;-83
2022/09/14 00:16:35;;;;;;;2.50;2.30;;;21.90;75.00;22.40;95755.00;;;;5069760;28;20246;-83
2022/09/14 00:19:05;;;;;;;2.47;2.27;;;21.90;75.10;22.40;95756.00;;;;5063825;28;20301;-83
2022/09/14 00:21:32;;;;;;;2.40;2.00;;;21.90;75.10;22.40;95766.00;;;;5071295;28;20283;-83
2022/09/14 00:24:01;;;;;;;1.83;1.73;;;21.90;75.00;22.50;95755.00;;;;5072669;28;20301;-83
2022/09/14 00:26:28;;;;;;;2.77;2.17;;;21.90;75.10;22.50;95755.00;;;;5071303;28;20751;-83
2022/09/14 00:28:58;;;;;;;2.23;2.10;;;21.90;75.10;22.50;95761.00;;;;5070709;28;20232;-83
2022/09/14 00:31:27;;;;;;;2.33;2.13;;;21.90;75.20;22.50;95771.00;;;;5071427;28;20255;-84
2022/09/14 00:33:54;;;;;;;2.30;2.10;;;21.90;75.10;22.50;95773.00;;;;5070170;28;20653;-83
2022/09/14 00:36:24;;;;;;;2.40;2.20;;;21.90;75.10;22.50;95773.00;;;;5071111;28;20196;-83
2022/09/14 00:38:54;;;;;;;2.40;2.20;;;21.90;75.10;22.50;95773.00;;;;5062160;28;20246;-84
2022/09/14 00:41:26;;;;;;;2.07;1.97;;;21.90;75.00;22.50;95766.00;;;;5068710;28;20672;-83
2022/09/14 00:43:57;;;;;;;2.63;2.43;;;21.90;75.00;22.50;95772.00;;;;5066173;28;20233;-84
2022/09/14 00:46:26;;;;;;;2.43;2.23;;;21.90;74.90;22.50;95767.00;;;;5067510;28;20203;-83
2022/09/14 00:48:54;;;;;;;2.37;2.17;;;21.90;74.80;22.50;95770.00;;;;5069738;28;20597;-83
2022/09/14 00:51:22;;;;;;;2.47;2.27;;;21.90;74.80;22.50;95760.00;;;;5068608;28;20200;-83
2022/09/14 00:53:50;;;;;;;2.50;2.30;;;21.90;74.90;22.50;95759.00;;;;5070520;28;20231;-83
2022/09/14 00:56:18;;;;;;;2.77;2.57;;;21.90;74.90;22.50;95754.00;;;;5067849;28;20235;-84
2022/09/14 00:58:51;;;;;;;2.33;2.23;;;21.90;74.90;22.40;95757.00;;;;5066594;28;20318;-83
2022/09/14 01:01:19;;;;;;;2.30;2.20;;;21.90;75.00;22.40;95751.00;;;;5068519;28;20283;-83
2022/09/14 01:03:46;;;;;;;2.33;2.23;;;21.90;74.90;22.40;95752.00;;;;5067856;28;20737;-83
2022/09/14 01:06:25;;;;;;;2.27;2.07;;;21.90;75.00;22.40;95745.00;;;;5070628;28;20222;-83
2022/09/14 01:09:12;;;;;;;3.47;2.40;;;21.90;75.20;22.40;95734.00;;;;5065291;28;20844;-83
2022/09/14 01:12:11;;;;;;;2.40;2.20;;;21.90;75.40;22.30;95741.00;;;;5066500;28;20206;-83
2022/09/14 01:14:50;;;;;;;2.07;1.97;;;21.90;75.60;22.40;95740.00;;;;5062327;28;20287;-83
2022/09/14 01:17:28;;;;;;;2.60;2.40;;;21.90;75.30;22.40;95742.00;;;;5064988;28;20282;-83
2022/09/14 01:20:24;;;;;;;2.10;2.00;;;21.90;75.30;22.40;95729.00;;;;5062230;28;20676;-83
2022/09/14 01:23:02;;;;;;;2.40;2.20;;;21.80;75.50;22.40;95715.00;;;;5066345;28;20228;-83
2022/09/14 01:26:15;;;;;;;2.00;1.90;;;21.90;75.40;22.40;95707.00;;;;5066988;28;20196;-84
2022/09/14 01:28:53;;;;;;;3.00;2.23;;;21.90;75.70;22.40;95688.00;;;;5071975;28;20243;-84
2022/09/14 01:31:28;;;;;;;2.37;2.20;;;21.90;75.70;22.40;95689.00;;;;5071866;28;20672;-83
2022/09/14 01:34:07;;;;;;;2.70;2.40;;;21.80;75.50;22.40;95684.00;;;;5067379;28;20195;-83
2022/09/14 01:36:39;;;;;;;2.33;2.03;;;21.90;75.60;22.40;95695.00;;;;5068183;28;20218;-84
2022/09/14 01:39:08;;;;;;;2.47;2.27;;;21.90;75.70;22.40;95685.00;;;;5067680;28;20311;-84
2022/09/14 01:41:36;;;;;;;2.47;2.27;;;21.90;75.70;22.50;95689.00;;;;5070725;28;20192;-84
2022/09/14 01:44:12;;;;;;;2.37;2.17;;;21.90;75.80;22.50;95679.00;;;;5073276;28;20246;-84
2022/09/14 01:46:44;;;;;;;2.33;2.13;;;21.90;76.00;22.50;95683.00;;;;5071639;28;20210;-83
2022/09/14 01:49:18;;;;;;;2.10;2.00;;;21.90;76.00;22.50;95699.00;;;;5073218;28;20216;-84
2022/09/14 01:51:49;;;;;;;4.47;2.50;;;21.90;76.00;22.50;95683.00;;;;5071808;28;20712;-84
2022/09/14 01:54:27;;;;;;;2.47;2.27;;;21.90;76.00;22.40;95687.00;;;;5073136;28;20200;-84
2022/09/14 01:57:00;;;;;;;3.00;2.63;;;21.90;76.10;22.50;95685.00;;;;5072913;28;20199;-83
2022/09/14 01:59:35;;;;;;;3.17;2.33;;;21.90;76.10;22.40;95693.00;;;;5072852;28;20314;-84
2022/09/14 02:02:09;;;;;;;3.03;2.37;;;21.90;76.20;22.40;95681.00;;;;5067417;28;20278;-84
2022/09/14 02:04:46;;;;;;;2.80;2.60;;;21.90;76.20;22.40;95675.00;;;;5070575;28;20311;-84
2022/09/14 02:07:15;;;;;;;2.60;2.40;;;21.90;76.20;22.40;95665.00;;;;5071585;28;20328;-83
2022/09/14 02:09:43;;;;;;;3.50;2.60;;;21.90;76.10;22.30;95668.00;;;;5073037;28;20206;-83
2022/09/14 02:12:10;;;;;;;2.50;2.30;;;21.90;76.20;22.30;95678.00;;;;5070306;28;20287;-83
2022/09/14 02:14:38;;;;;;;2.60;2.40;;;21.90;76.30;22.30;95678.00;;;;5071556;28;20199;-83
2022/09/14 02:17:07;;;;;;;2.87;2.40;;;21.90;76.40;22.30;95671.00;;;;5071119;28;20280;-83
2022/09/14 02:19:47;;;;;;;2.90;2.70;;;21.90;76.40;22.30;95669.00;;;;5072461;28;20596;-84
2022/09/14 02:22:15;;;;;;;3.13;2.77;;;21.90;76.70;22.30;95663.00;;;;5068267;28;20728;-83
2022/09/14 02:24:42;;;;;;;3.50;2.97;;;21.90;76.50;22.40;95655.00;;;;5065982;28;20218;-84
2022/09/14 02:27:09;;;;;;;2.80;2.60;;;21.90;76.60;22.40;95663.00;;;;5073151;28;20196;-83
2022/09/14 02:29:38;;;;;;;3.27;2.97;;;21.90;76.60;22.40;95653.00;;;;5070675;28;20339;-83
2022/09/14 02:32:21;;;;;;;3.07;2.50;;;21.90;76.70;22.40;95664.00;;;;5070196;28;20211;-83
2022/09/14 02:34:58;;;;;;;3.10;2.67;;;21.90;76.90;22.50;95656.00;;;;5070100;28;20375;-83
2022/09/14 02:37:37;;;;;;;3.93;3.07;;;21.90;76.80;22.50;95665.00;;;;5072478;28;20211;-84
2022/09/14 02:40:16;;;;;;;5.60;3.03;;;21.90;76.70;22.50;95656.00;;;;5069572;28;20295;-83
2022/09/14 02:42:58;;;;;;;2.90;2.70;;;21.90;76.60;22.50;95659.00;;;;5070901;28;20224;-83
2022/09/14 02:45:34;;;;;;;2.83;2.63;;;21.90;76.70;22.50;95657.00;;;;5070221;28;20231;-83
2022/09/14 02:48:12;;;;;;;3.53;3.23;;;21.90;76.60;22.50;95651.00;;;;5059287;28;20697;-84
2022/09/14 02:50:49;;;;;;;3.27;2.97;;;21.90;76.50;22.50;95642.00;;;;5068945;28;20206;-84
2022/09/14 02:53:24;;;;;;;3.30;3.00;;;21.90;76.60;22.50;95643.00;;;;5071731;28;20221;-84
2022/09/14 02:55:57;;;;;;;3.47;3.17;;;21.90;76.70;22.50;95637.00;;;;5071594;28;20203;-83
2022/09/14 02:58:24;;;;;;;3.27;2.97;;;21.90;76.60;22.50;95634.00;;;;5070764;28;20319;-83
2022/09/14 03:00:52;;;;;;;3.77;3.37;;;22.00;76.70;22.50;95624.00;;;;5070950;28;20298;-83
2022/09/14 03:03:21;;;;;;;3.50;3.20;;;21.90;76.60;22.50;95619.00;;;;5071667;28;20188;-84
2022/09/14 03:05:48;;;;;;;3.47;3.20;;;21.90;76.60;22.50;95606.00;;;;5070239;28;20511;-83
2022/09/14 03:08:16;;;;;;;4.03;3.57;;;21.90;76.60;22.50;95605.00;;;;5071710;28;20212;-84
2022/09/14 03:10:44;;;;;;;3.90;3.60;;;21.90;76.70;22.50;95613.00;;;;5070642;28;20223;-83
2022/09/14 03:13:12;;;;;;;3.50;3.03;;;22.00;76.80;22.50;95608.00;;;;5070145;28;20283;-84
2022/09/14 03:15:39;;;;;;;3.97;3.50;;;21.90;76.70;22.50;95606.00;;;;5068118;28;20210;-83
2022/09/14 03:18:09;;;;;;;3.77;3.47;;;22.00;76.70;22.50;95610.00;;;;5069826;28;20216;-83
2022/09/14 03:20:36;;;;;;;3.20;3.00;;;21.90;76.70;22.50;95616.00;;;;5070753;28;20282;-83
2022/09/14 03:23:07;;;;;;;3.03;2.83;;;22.00;76.90;22.50;95616.00;;;;5071240;28;20216;-83
2022/09/14 03:25:37;;;;;;;3.50;3.27;;;22.00;76.80;22.50;95619.00;;;;5069251;28;20203;-83
2022/09/14 03:28:05;;;;;;;3.53;3.03;;;22.00;76.80;22.50;95612.00;;;;5067384;28;20628;-83
2022/09/14 03:30:34;;;;;;;3.60;3.30;;;21.90;76.70;22.50;95606.00;;;;5069000;28;20303;-83
2022/09/14 03:33:01;;;;;;;4.20;3.80;;;22.00;76.80;22.50;95594.00;;;;5067044;28;20195;-83
2022/09/14 03:35:31;;;;;;;3.40;3.10;;;22.00;76.70;22.50;95595.00;;;;5070650;28;20266;-83
2022/09/14 03:38:01;;;;;;;3.50;3.20;;;22.00;76.70;22.50;95597.00;;;;5069529;28;20219;-83
2022/09/14 03:40:29;;;;;;;3.53;3.23;;;22.00;76.70;22.50;95597.00;;;;5070700;28;20671;-83
2022/09/14 03:42:56;;;;;;;3.73;3.50;;;22.00;76.70;22.50;95595.00;;;;5067859;28;20203;-83
2022/09/14 03:45:23;;;;;;;3.80;3.50;;;22.00;76.70;22.50;95596.00;;;;5069204;28;20223;-83
2022/09/14 03:47:50;;;;;;;3.87;3.20;;;22.00;76.70;22.50;95582.00;;;;5067425;28;20313;-83
2022/09/14 03:50:19;;;;;;;4.00;3.60;;;22.00;76.70;22.50;95582.00;;;;5060656;28;20202;-84
2022/09/14 03:52:48;;;;;;;3.37;3.13;;;22.00;76.70;22.50;95575.00;;;;5066856;28;20658;-83
2022/09/14 03:55:18;;;;;;;3.50;3.20;;;22.00;76.80;22.50;95569.00;;;;5070598;28;20234;-83
2022/09/14 03:57:45;;;;;;;3.67;3.23;;;22.00;76.70;22.50;95582.00;;;;5068259;28;20216;-83
2022/09/14 04:00:12;;;;;;;4.30;3.43;;;22.00;76.70;22.50;95593.00;;;;5069466;28;20283;-83
2022/09/14 04:02:40;;;;;;;4.10;3.20;;;22.00;76.70;22.50;95585.00;;;;5068081;28;20199;-84
2022/09/14 04:05:08;;;;;;;2.90;2.70;;;21.90;76.50;22.50;95595.00;;;;5070416;28;20316;-84
2022/09/14 04:07:36;;;;;;;3.87;3.40;;;21.90;76.50;22.50;95604.00;;;;5068800;28;20559;-84
2022/09/14 04:10:06;;;;;;;3.43;3.20;;;21.90;76.60;22.50;95599.00;;;;5069134;28;20205;-84
2022/09/14 04:12:35;;;;;;;3.33;3.03;;;21.90;76.70;22.40;95591.00;;;;5069649;28;20199;-84
2022/09/14 04:15:03;;;;;;;3.60;3.30;;;21.90;76.60;22.40;95604.00;;;;5064651;28;20300;-84
2022/09/14 04:17:30;;;;;;;3.70;3.40;;;21.90;76.60;22.40;95603.00;;;;5067074;28;20286;-84
2022/09/14 04:19:57;;;;;;;3.30;3.10;;;21.90;76.70;22.40;95605.00;;;;5068386;28;20208;-83
2022/09/14 04:22:24;;;;;;;3.87;2.90;;;21.90;76.60;22.40;95619.00;;;;5069063;28;20639;-84
2022/09/14 04:24:51;;;;;;;3.57;3.20;;;21.90;76.70;22.40;95636.00;;;;5065408;28;20226;-84
2022/09/14 04:27:20;;;;;;;3.83;3.50;;;21.90;76.70;22.40;95628.00;;;;5070528;28;20686;-84
2022/09/14 04:29:49;;;;;;;3.87;3.57;;;21.90;76.80;22.40;95632.00;;;;5068264;28;20644;-84
2022/09/14 04:32:17;;;;;;;3.93;3.57;;;21.90;77.00;22.40;95637.00;;;;5066410;28;20207;-84
2022/09/14 04:34:44;;;;;;;3.43;3.23;;;21.90;77.10;22.50;95631.00;;;;5068388;28;20206;-84
2022/09/14 04:37:11;;;;;;;3.67;3.47;;;21.90;77.20;22.50;95629.00;;;;5069238;28;20192;-84
2022/09/14 04:39:38;;;;;;;3.50;3.20;;;21.90;77.30;22.50;95639.00;;;;5069964;28;20307;-86
2022/09/14 04:42:06;;;;;;;3.50;3.23;;;21.90;77.40;22.50;95626.00;;;;5068043;28;20291;-87
2022/09/14 04:44:35;;;;;;;3.47;3.17;;;21.90;77.40;22.50;95622.00;;;;5066199;28;20608;-86
2022/09/14 04:47:02;;;;;;;3.47;3.27;;;21.90;77.40;22.50;95623.00;;;;5068534;28;20206;-87
2022/09/14 04:49:29;;;;;;;3.53;3.10;;;21.90;77.40;22.50;95626.00;;;;5110941;22;20217;-84
2022/09/14 04:51:57;;;;;;;3.27;3.07;;;21.90;77.40;22.50;95592.00;;;;5101800;28;20596;-84
2022/09/14 04:54:25;;;;;;;3.43;3.13;;;21.90;77.40;22.50;95599.00;;;;5098765;28;20241;-84
2022/09/14 04:56:52;;;;;;;2.93;2.73;;;21.90;77.40;22.50;95605.00;;;;5123909;22;20237;-80
2022/09/14 04:59:21;;;;;;;3.80;3.50;;;21.90;77.50;22.50;95600.00;;;;5103792;28;20197;-80
2022/09/14 05:01:50;;;;;;;3.00;2.70;;;21.90;77.50;22.50;95587.00;;;;5102179;28;20318;-81
2022/09/14 05:04:18;;;;;;;3.07;2.87;;;21.90;77.60;22.50;95592.00;;;;5094661;28;20256;-80
2022/09/14 05:06:45;;;;;;;3.57;3.27;;;21.90;77.60;22.50;95583.00;;;;5096182;28;20230;-81
2022/09/14 05:09:16;;;;;;;4.90;3.10;;;21.90;77.60;22.50;95592.00;;;;5090205;28;20273;-81
2022/09/14 05:11:44;;;;;;;3.20;3.00;;;21.90;77.50;22.50;95592.00;;;;5095179;28;20218;-80
2022/09/14 05:14:16;;;;;;;3.33;3.10;;;22.00;77.60;22.50;95597.00;;;;5085125;28;20298;-80
2022/09/14 05:16:44;;;;;;;3.40;3.10;;;21.90;77.40;22.50;95610.00;;;;5089382;28;20201;-80
2022/09/14 05:19:17;;;;;;;4.00;3.53;;;21.90;77.40;22.50;95609.00;;;;5091541;28;20610;-80
2022/09/14 05:21:45;;;;;;;3.77;3.47;;;21.90;77.50;22.50;95595.00;;;;5089917;28;20215;-80
2022/09/14 05:24:15;;;;;;;4.23;3.27;;;21.90;77.40;22.50;95606.00;;;;5092493;28;20627;-80
2022/09/14 05:26:44;;;;;;;3.83;3.47;;;21.90;77.50;22.50;95601.00;;;;5094949;28;20260;-80
2022/09/14 05:29:17;;;;;;;4.30;3.90;;;21.90;77.50;22.50;95594.00;;;;5095354;28;20234;-81
2022/09/14 05:31:45;;;;;;;3.40;3.13;;;21.90;78.30;22.50;95601.00;;;;5089972;28;20257;-81
2022/09/14 05:34:15;;;;;;;4.00;3.70;;;21.90;77.60;22.50;95595.00;;;;5087550;28;20626;-81
2022/09/14 05:36:42;;;;;;;3.97;3.53;;;22.00;77.70;22.60;95596.00;;;;5089464;28;20252;-80
2022/09/14 05:39:10;;;;;;;3.73;3.40;;;22.00;77.80;22.60;95601.00;;;;5096252;28;20192;-80
2022/09/14 05:41:38;;;;;;;3.97;3.57;;;22.00;78.00;22.60;95594.00;;;;5083463;28;20215;-80
2022/09/14 05:44:06;;;;;;;4.17;3.77;;;22.00;78.10;22.60;95589.00;;;;5097157;28;20592;-81
2022/09/14 05:46:34;;;;;;;4.20;3.40;;;22.00;78.00;22.60;95593.00;;;;5090141;28;20191;-80
2022/09/14 05:49:02;;;;;;;5.70;3.40;;;22.00;78.20;22.60;95577.00;;;;5078967;28;20612;-80
2022/09/14 05:51:30;;;;;;;3.63;3.30;;;22.00;78.20;22.60;95577.00;;;;5094335;28;20306;-81
2022/09/14 05:53:59;;;;;;;3.93;2.97;;;22.00;78.30;22.60;95576.00;;;;5080244;28;20200;-81
2022/09/14 05:56:30;;;;;;;3.57;3.27;;;22.10;78.30;22.60;95587.00;;;;5088719;28;20596;-80
2022/09/14 05:58:59;;;;;;;3.20;3.00;;;22.10;78.20;22.70;95587.00;;;;5091332;28;20203;-81
2022/09/14 06:01:29;;;;;;;6.27;3.27;;;22.10;78.20;22.70;95582.00;;;;5093016;28;20211;-80
2022/09/14 06:03:59;;;;;;;3.50;3.20;;;22.10;78.20;22.70;95575.00;;;;5087336;28;20199;-81
2022/09/14 06:06:26;;;;;;;6.10;3.67;;;22.10;78.20;22.70;95560.00;;;;5095714;28;20191;-80
2022/09/14 06:08:55;;;;;;;2.97;2.77;;;22.10;79.00;22.70;95548.00;;;;5087253;28;20256;-81
2022/09/14 06:11:27;;;;;;;3.37;2.73;;;22.10;78.20;22.70;95549.00;;;;5092386;28;20238;-80
2022/09/14 06:14:07;;;;;;;3.17;2.87;;;22.10;78.20;22.70;95555.00;;;;5086232;28;20187;-81
2022/09/14 06:16:35;;;;;;;3.57;2.73;;;22.10;78.20;22.70;95572.00;;;;5094007;28;20256;-81
2022/09/14 06:19:03;;;;;;;3.57;3.27;;;22.10;78.20;22.70;95558.00;;;;5082580;28;20230;-81
2022/09/14 06:21:34;;;;;;;3.30;3.10;;;22.10;78.30;22.70;95565.00;;;;5090864;28;20226;-81
2022/09/14 06:24:14;;;;;;;3.50;3.30;;;22.20;78.40;22.70;95558.00;;;;5091880;28;20653;-82
2022/09/14 06:26:42;;;;;;;3.73;3.43;;;22.20;78.50;22.80;95566.00;;;;5090887;28;20460;-83
2022/09/14 06:29:15;;;;;;;3.67;3.37;;;22.20;78.60;22.80;95558.00;;;;5092143;28;20199;-80
2022/09/14 06:31:46;;;;;;;3.67;2.90;;;22.20;78.60;22.80;95568.00;;;;5089248;28;20212;-81
2022/09/14 06:34:19;;;;;;;3.20;3.00;;;22.20;78.70;22.80;95564.00;;;;5090231;28;20187;-80
2022/09/14 06:36:47;;;;;;;3.37;3.07;;;22.20;78.70;22.80;95576.00;;;;5093304;28;20572;-83
2022/09/14 06:39:18;;;;;;;4.03;3.17;;;22.20;78.80;22.90;95581.00;;;;5086899;28;20320;-81
2022/09/14 06:41:50;;;;;;;3.30;3.00;;;22.20;78.80;22.90;95573.00;;;;5091384;28;21000;-82
2022/09/14 06:44:18;;;;;;;3.40;3.20;;;22.20;78.80;23.00;95569.00;;;;5081605;28;20569;-83
2022/09/14 06:46:51;;;;;;;3.00;2.80;;;22.30;78.90;23.00;95570.00;;;;5093229;28;20207;-82
2022/09/14 06:49:21;;;;;;;3.47;2.73;;;22.30;79.00;23.10;95576.00;;;;5089004;28;20196;-82
2022/09/14 06:51:56;;;;;;;3.00;2.80;;;22.40;79.10;23.10;95572.00;;;;5075370;28;20219;-82
2022/09/14 06:54:25;;;;;;;4.47;2.87;;;22.40;79.40;23.20;95573.00;;;;5080394;28;20199;-82
2022/09/14 06:56:52;;;;;;;2.77;2.57;;;22.40;79.40;23.30;95570.00;;;;5089249;28;20211;-82
2022/09/14 06:59:19;;;;;;;2.37;2.17;;;22.50;79.30;23.30;95572.00;;;;5087384;28;20256;-82
2022/09/14 07:01:48;;;;;;;3.10;2.40;;;22.50;79.20;23.40;95569.00;;;;5085548;28;20658;-81
2022/09/14 07:04:16;;;;;;;2.37;2.00;;;22.60;79.40;23.40;95568.00;;;;5078824;28;20191;-82
2022/09/14 07:06:57;;;;;;;2.57;2.20;;;22.60;79.20;23.50;95557.00;;;;5089297;28;20306;-82
2022/09/14 07:09:25;;;;;;;2.20;2.00;;;22.60;78.90;23.50;95545.00;;;;5085440;28;20640;-83
2022/09/14 07:11:56;;;;;;;2.70;1.80;;;22.70;78.80;23.50;95530.00;;;;5086105;28;20204;-83
2022/09/14 07:14:35;;;;;;;1.60;1.50;;;22.70;78.50;23.50;95549.00;;;;5085639;28;20200;-82
2022/09/14 07:17:05;;;;;;;2.00;1.90;;;22.80;78.60;23.60;95568.00;;;;5099580;28;20206;-82
2022/09/14 07:19:38;;;;;;;1.60;1.30;;;22.80;78.70;23.60;95560.00;;;;5095404;28;20191;-83
2022/09/14 07:22:16;;;;;;;1.60;1.50;;;22.80;78.90;23.70;95568.00;;;;5087675;28;20191;-82
2022/09/14 07:24:49;;;;;;;1.70;1.47;;;22.90;78.90;23.70;95575.00;;;;5093393;28;20195;-85
2022/09/14 07:27:19;;;;;;;2.77;1.70;;;23.00;79.70;23.80;95571.00;;;;5091766;28;20605;-85
2022/09/14 07:29:47;;;;;;;1.70;1.43;;;23.00;79.00;23.80;95563.00;;;;5087591;28;20667;-85
2022/09/14 07:32:14;;;;;;;1.70;1.60;;;23.10;78.80;23.80;95563.00;;;;5084923;28;20208;-85
2022/09/14 07:34:43;;;;;;;3.93;1.60;;;23.10;78.70;23.90;95561.00;;;;5088510;28;20224;-85
2022/09/14 07:37:17;;;;;;;1.43;1.33;;;23.10;78.60;23.90;95575.00;;;;5084499;28;20195;-85
2022/09/14 07:39:47;;;;;;;3.20;1.53;;;23.10;78.70;23.90;95577.00;;;;5090294;28;20294;-86
2022/09/14 07:42:26;;;;;;;1.83;1.50;;;23.20;78.70;24.00;95573.00;;;;5090981;28;20202;-86
2022/09/14 07:44:55;;;;;;;1.90;1.67;;;23.20;78.80;24.00;95566.00;;;;5090964;28;20225;-85
2022/09/14 07:47:22;;;;;;;1.37;1.27;;;23.30;78.90;24.10;95569.00;;;;5080860;28;20237;-86
2022/09/14 07:49:49;;;;;;;1.57;1.47;;;23.30;78.90;24.20;95571.00;;;;5087325;28;20223;-85
2022/09/14 07:52:17;;;;;;;1.90;1.30;;;23.40;78.90;24.30;95573.00;;;;5092962;28;20651;-85
2022/09/14 07:54:45;;;;;;;2.17;1.50;;;23.40;78.90;24.30;95577.00;;;;5086272;28;20204;-86
2022/09/14 07:57:18;;;;;;;2.43;1.90;;;23.50;79.00;24.40;95586.00;;;;5091787;28;20236;-85
2022/09/14 07:59:52;;;;;;;2.20;1.20;;;23.50;78.80;24.50;95583.00;;;;5091425;28;20209;-85
2022/09/14 08:05:13;;;;;;;2.10;1.57;;;23.70;78.90;24.70;95580.00;;;;5090310;28;20223;-85
2022/09/14 08:07:43;;;;;;;2.10;1.17;;;23.80;79.10;24.80;95579.00;;;;5103097;28;20197;-81
2022/09/14 08:10:15;;;;;;;1.07;1.00;;;23.90;79.00;24.80;95568.00;;;;5096517;28;20214;-82
2022/09/14 08:12:43;;;;;;;1.40;1.30;;;23.90;79.20;24.90;95573.00;;;;5092438;28;20297;-82
2022/09/14 08:15:21;;;;;;;2.87;1.27;;;24.00;79.20;25.10;95587.00;;;;5081652;28;20576;-82
2022/09/14 08:17:51;;;;;;;1.20;1.10;;;24.10;79.20;25.20;95590.00;;;;5072840;28;20194;-82
2022/09/14 08:20:19;;;;;;;1.23;1.00;;;24.20;79.30;25.30;95599.00;;;;5071786;28;20620;-82
2022/09/14 08:22:48;;;;;;;2.60;1.13;;;24.30;79.40;25.40;95608.00;;;;5071642;28;20252;-82
2022/09/14 08:25:19;;;;;;;2.03;1.10;;;24.40;79.10;25.50;95611.00;;;;5073555;28;20303;-82
2022/09/14 08:27:46;;;;;;;2.17;1.20;;;24.50;79.10;25.60;95613.00;;;;5074824;28;20195;-83
2022/09/14 08:30:19;;;;;;;2.93;1.10;;;24.60;79.10;25.70;95610.00;;;;5091552;28;20309;-82
2022/09/14 08:32:52;;;;;;;1.47;1.03;;;24.70;78.70;25.80;95607.00;;;;5080048;28;20308;-82
2022/09/14 08:35:21;;;;;;;1.33;0.80;;;24.80;78.50;25.90;95607.00;;;;5071806;28;20238;-83
2022/09/14 08:37:53;;;;;;;1.43;1.00;;;24.90;78.30;26.00;95601.00;;;;5070187;28;20262;-82
2022/09/14 08:40:22;;;;;;;1.80;1.13;;;25.00;78.20;26.00;95603.00;;;;5083773;28;20225;-82
2022/09/14 08:42:52;;;;;;;3.07;0.80;;;25.10;78.10;26.10;95593.00;;;;5092646;28;20237;-82
2022/09/14 08:45:27;;;;;;;1.20;1.10;;;25.10;77.90;26.30;95604.00;;;;5082622;28;20467;-82
2022/09/14 08:48:02;;;;;;;1.03;0.93;;;25.30;77.80;26.40;95590.00;;;;5074566;28;20234;-82
2022/09/14 08:50:32;;;;;;;0.97;0.77;;;25.40;77.80;26.60;95596.00;;;;5073239;28;20283;-83
2022/09/14 08:53:00;;;;;;;0.70;0.70;;;25.50;78.00;26.80;95596.00;;;;5087734;28;20210;-83
2022/09/14 08:55:51;;;;;;;2.23;1.07;;;25.60;78.00;27.00;95601.00;;;;5081973;28;20235;-83
2022/09/14 08:58:44;;;;;;;2.40;0.80;;;25.80;77.40;27.20;95597.00;;;;5088286;28;20321;-83
2022/09/14 09:01:32;;;;;;;0.87;0.80;;;26.00;76.60;27.40;95591.00;;;;5081915;28;20215;-83
2022/09/14 09:04:33;;;;;;;1.33;0.77;;;26.20;75.70;27.60;95602.00;;;;5073441;28;20208;-83
2022/09/14 09:07:35;;;;;;;2.30;0.80;;;26.40;76.00;27.90;95598.00;;;;5079782;28;20263;-82
2022/09/14 09:10:18;;;;;;;3.27;1.00;;;26.60;75.40;28.10;95604.00;;;;5092600;28;20210;-82
2022/09/14 09:12:57;;;;;;;1.27;0.83;;;26.80;75.50;28.20;95605.00;;;;5092933;28;20690;-82
2022/09/14 09:15:30;;;;;;;1.93;0.90;;;27.00;73.60;28.30;95610.00;;;;5089829;28;20290;-83
2022/09/14 09:18:06;;;;;;;1.23;0.80;;;27.10;73.40;28.40;95619.00;;;;5087234;28;20286;-82
2022/09/14 09:20:40;;;;;;;2.53;0.70;;;27.20;72.70;28.50;95624.00;;;;5084431;28;20326;-82
2022/09/14 09:23:16;;;;;;;1.43;1.07;;;27.30;71.80;28.50;95619.00;;;;5088578;28;20211;-83
2022/09/14 09:25:57;;;;;;;1.87;0.90;;;27.50;71.30;28.60;95628.00;;;;5079891;28;20242;-83
2022/09/14 09:28:30;;;;;;;1.80;0.90;;;27.60;70.10;28.70;95633.00;;;;5071145;28;20214;-82
2022/09/14 09:31:05;;;;;;;2.87;0.73;;;27.60;70.20;28.80;95631.00;;;;5074598;28;20579;-82
2022/09/14 09:33:41;;;;;;;1.77;0.70;;;27.70;70.20;28.90;95636.00;;;;5084951;28;20190;-82
2022/09/14 09:36:19;;;;;;;3.53;0.87;;;27.80;69.70;28.90;95648.00;;;;5082704;28;20203;-82
2022/09/14 09:38:57;;;;;;;0.80;0.80;;;27.90;69.50;29.00;95638.00;;;;5088192;28;20195;-83
2022/09/14 09:41:36;;;;;;;1.08;0.82;;;28.00;69.00;29.10;95648.00;;;;5084122;28;20786;-82
2022/09/14 09:44:13;;;;;;;1.17;1.00;;;28.10;68.30;29.10;95643.00;;;;5087398;28;20252;-81
2022/09/14 09:46:53;;;;;;;2.33;1.00;;;28.20;68.40;29.20;95651.00;;;;5086164;28;20253;-82
2022/09/14 09:49:33;;;;;;;3.70;1.73;;;28.20;68.50;29.20;95647.00;;;;5091275;28;20245;-80
2022/09/14 09:52:10;;;;;;;1.35;1.00;;;28.20;67.90;29.30;95639.00;;;;5088346;28;20264;-82
2022/09/14 09:54:44;;;;;;;2.05;1.10;;;28.30;67.10;29.30;95636.00;;;;5091847;28;20289;-82
2022/09/14 09:57:28;;;;;;;1.02;0.93;;;28.40;67.90;29.40;95641.00;;;;5074648;28;20306;-82
2022/09/14 10:00:30;;;;;;;1.25;0.80;;;28.40;66.60;29.50;95635.00;;;;5080836;28;20219;-82
2022/09/14 10:03:02;;;;;;;2.40;0.93;;;28.50;65.90;29.60;95638.00;;;;5093042;28;20206;-82
2022/09/14 10:05:31;;;;;;;1.73;0.80;;;28.60;66.70;29.80;95633.00;;;;5094880;28;20714;-83
2022/09/14 10:08:06;;;;;;;1.17;0.85;;;28.70;66.80;30.00;95624.00;;;;5099430;28;20195;-85
2022/09/14 10:10:46;;;;;;;1.10;0.90;;;28.90;67.00;30.20;95627.00;;;;5085305;28;20217;-84
2022/09/14 10:13:28;;;;;;;1.10;0.75;;;29.00;65.70;30.40;95618.00;;;;5094017;28;20191;-85
2022/09/14 10:16:12;;;;;;;1.38;0.70;;;29.20;65.50;30.60;95612.00;;;;5082399;28;20199;-83
2022/09/14 10:18:46;;;;;;;1.73;0.70;;;29.40;64.70;30.80;95611.00;;;;5091419;28;20649;-85
2022/09/14 10:21:16;;;;;;;1.98;0.70;;;29.50;64.30;30.90;95610.00;;;;5085519;28;20217;-86
2022/09/14 10:23:44;;;;;;;0.95;0.90;;;29.70;64.50;31.10;95599.00;;;;5094366;28;20219;-82
2022/09/14 10:26:27;;;;;;;0.88;0.77;;;29.90;64.60;31.30;95600.00;;;;5095718;28;20254;-82
2022/09/14 10:28:57;;;;;;;0.77;0.60;;;30.10;62.60;31.40;95600.00;;;;5095199;28;20195;-82
2022/09/14 10:31:35;;;;;;;1.60;0.85;;;30.30;63.30;31.60;95604.00;;;;5091421;28;20223;-81
2022/09/14 10:34:21;;;;;;;1.30;0.73;;;30.50;61.00;31.70;95595.00;;;;5089117;28;20199;-84
2022/09/14 10:37:06;;;;;;;1.00;0.80;;;30.70;61.40;31.90;95603.00;;;;5087517;28;20249;-84
2022/09/14 10:39:44;;;;;;;1.00;0.60;;;30.90;60.80;32.00;95604.00;;;;5089687;28;20644;-84
2022/09/14 10:42:26;;;;;;;5.15;1.08;;;31.00;60.30;32.10;95595.00;;;;5085454;28;20195;-81
2022/09/14 10:45:17;;;;;;;1.80;0.90;;;31.20;59.40;32.10;95578.00;;;;5076642;28;20192;-82
2022/09/14 10:48:42;;;;;;;2.15;0.68;;;31.20;58.70;32.10;95592.00;;;;5086200;28;20219;-82
2022/09/14 10:51:37;;;;;;;4.75;0.93;;;31.30;57.60;32.10;95574.00;;;;5042456;28;20517;-81
2022/09/14 10:54:31;;;;;;;0.93;0.80;;;31.30;58.00;32.00;95568.00;;;;5086492;28;20199;-82
2022/09/14 10:59:42;;;;;;;0.70;0.50;;;31.30;57.80;31.90;95564.00;;;;5108558;28;20199;-82
2022/09/14 11:03:09;;;;;;;1.83;0.60;;;31.20;57.50;31.80;95562.00;;;;5088317;28;20237;-82
2022/09/14 11:05:42;;;;;;;2.05;0.70;;;31.20;56.80;31.80;95571.00;;;;5089436;28;20195;-82
2022/09/14 11:08:24;;;;;;;0.82;0.68;;;31.10;57.30;31.70;95566.00;;;;5090412;28;20573;-82
2022/09/14 11:11:13;;;;;;;0.60;0.60;;;31.00;56.80;31.60;95559.00;;;;5083055;28;20307;-82
2022/09/14 11:14:09;;;;;;;0.50;0.50;;;30.90;57.50;31.50;95555.00;;;;5086691;28;20311;-82
2022/09/14 11:17:36;;;;;;;1.00;0.70;;;30.90;56.80;31.30;95543.00;;;;5084915;28;20726;-82
2022/09/14 11:20:28;;;;;;;0.73;0.60;;;30.80;56.60;31.20;95536.00;;;;5028589;28;20664;-82
2022/09/14 11:23:26;;;;;;;0.60;0.50;;;30.70;56.80;31.10;95545.00;;;;5084679;28;20192;-82
2022/09/14 11:26:00;;;;;;;0.80;0.63;;;30.60;56.30;31.00;95537.00;;;;5081462;28;20655;-82
2022/09/14 11:28:34;;;;;;;0.75;0.50;;;30.50;57.20;31.00;95527.00;;;;5091173;28;20675;-82